createdAt,value
2022-08-24T00:01:57.184Z,17.80
2022-08-24T00:04:26.305Z,17.80
2022-08-24T00:06:56.526Z,17.70
2022-08-24T00:09:26.256Z,17.70
2022-08-24T00:11:54.824Z,17.70
2022-08-24T00:14:23.081Z,17.70
2022-08-24T00:16:51.426Z,17.60
2022-08-24T00:19:19.586Z,17.60
2022-08-24T00:21:47.809Z,17.60
2022-08-24T00:24:16.307Z,17.50
2022-08-24T00:26:46.562Z,17.50
2022-08-24T00:29:15.427Z,17.50
2022-08-24T00:31:44.031Z,17.30
2022-08-24T00:34:13.906Z,17.30
2022-08-24T00:36:42.745Z,17.20
2022-08-24T00:39:11.291Z,17.20
2022-08-24T00:41:42.924Z,17.20
2022-08-24T00:44:14.159Z,17.20
2022-08-24T00:46:46.858Z,17.20
2022-08-24T00:49:22.802Z,17.20
2022-08-24T00:51:57.567Z,17.20
2022-08-24T00:54:30.516Z,17.20
2022-08-24T00:57:03.778Z,17.20
2022-08-24T00:59:37.405Z,17.10
2022-08-24T01:02:15.607Z,17.10
2022-08-24T01:04:50.229Z,17.10
2022-08-24T01:07:18.857Z,17.10
2022-08-24T01:09:47.283Z,17.00
2022-08-24T01:12:17.407Z,17.00
2022-08-24T01:14:47.435Z,17.00
2022-08-24T01:20:18.177Z,16.90
2022-08-24T01:23:02.856Z,16.90
2022-08-24T01:25:36.059Z,16.90
2022-08-24T01:28:11.564Z,16.80
2022-08-24T01:30:40.170Z,16.80
2022-08-24T01:33:10.533Z,16.80
2022-08-24T01:35:40.422Z,16.90
2022-08-24T01:38:11.582Z,16.80
2022-08-24T01:40:47.593Z,16.80
2022-08-24T01:43:16.364Z,16.80
2022-08-24T01:45:44.620Z,16.80
2022-08-24T01:48:13.846Z,16.80
2022-08-24T01:50:42.077Z,16.70
2022-08-24T01:53:10.942Z,16.70
2022-08-24T01:55:42.478Z,16.70
2022-08-24T01:58:10.491Z,16.70
2022-08-24T02:00:38.614Z,16.60
2022-08-24T02:03:07.009Z,16.70
2022-08-24T02:05:36.417Z,16.60
2022-08-24T02:08:05.031Z,16.60
2022-08-24T02:10:33.768Z,16.60
2022-08-24T02:13:04.865Z,16.50
2022-08-24T02:15:40.192Z,16.50
2022-08-24T02:18:15.291Z,16.50
2022-08-24T02:20:44.940Z,16.50
2022-08-24T02:23:13.470Z,16.40
2022-08-24T02:25:41.552Z,16.50
2022-08-24T02:28:10.981Z,16.50
2022-08-24T02:30:40.274Z,16.40
2022-08-24T02:33:09.214Z,16.30
2022-08-24T02:35:37.467Z,16.30
2022-08-24T02:38:05.747Z,16.30
2022-08-24T02:40:33.779Z,16.30
2022-08-24T02:43:01.943Z,16.30
2022-08-24T02:45:31.487Z,16.20
2022-08-24T02:47:59.932Z,16.20
2022-08-24T02:50:28.160Z,16.10
2022-08-24T02:52:56.563Z,16.10
2022-08-24T02:55:25.050Z,16.00
2022-08-24T02:57:53.285Z,16.00
2022-08-24T03:00:22.836Z,16.00
2022-08-24T03:02:52.473Z,16.00
2022-08-24T03:05:20.762Z,15.90
2022-08-24T03:07:49.474Z,15.90
2022-08-24T03:10:21.227Z,16.00
2022-08-24T03:12:49.676Z,16.00
2022-08-24T03:15:18.376Z,16.00
2022-08-24T03:17:49.100Z,16.00
2022-08-24T03:20:22.728Z,16.00
2022-08-24T03:22:50.837Z,16.00
2022-08-24T03:25:20.591Z,16.00
2022-08-24T03:27:48.609Z,15.90
2022-08-24T03:30:18.598Z,15.90
2022-08-24T03:32:47.114Z,15.90
2022-08-24T03:35:16.198Z,15.90
2022-08-24T03:37:45.768Z,15.90
2022-08-24T03:40:23.177Z,15.90
2022-08-24T03:42:53.387Z,15.80
2022-08-24T03:45:23.700Z,15.90
2022-08-24T03:47:53.643Z,15.80
2022-08-24T03:50:24.205Z,15.80
2022-08-24T03:52:54.134Z,15.70
2022-08-24T03:55:22.553Z,15.70
2022-08-24T03:57:50.769Z,15.70
2022-08-24T04:00:19.232Z,15.70
2022-08-24T04:02:47.537Z,15.70
2022-08-24T04:05:15.658Z,15.70
2022-08-24T04:07:43.878Z,15.60
2022-08-24T04:10:14.450Z,15.60
2022-08-24T04:12:42.658Z,15.60
2022-08-24T04:15:12.459Z,15.60
2022-08-24T04:17:40.689Z,15.60
2022-08-24T04:20:10.039Z,15.60
2022-08-24T04:22:38.559Z,15.60
2022-08-24T04:25:09.434Z,15.60
2022-08-24T04:27:39.867Z,15.60
2022-08-24T04:30:09.237Z,15.60
2022-08-24T04:32:37.878Z,15.60
2022-08-24T04:35:08.001Z,15.60
2022-08-24T04:37:36.110Z,15.50
2022-08-24T04:40:05.712Z,15.60
2022-08-24T04:42:34.059Z,15.60
2022-08-24T04:45:03.766Z,15.60
2022-08-24T04:47:31.946Z,15.60
2022-08-24T04:50:00.342Z,15.60
2022-08-24T04:52:29.527Z,15.60
2022-08-24T04:54:57.788Z,15.60
2022-08-24T04:57:26.308Z,15.70
2022-08-24T04:59:57.441Z,15.70
2022-08-24T05:02:27.586Z,15.60
2022-08-24T05:04:58.126Z,15.70
2022-08-24T05:07:26.862Z,15.70
2022-08-24T05:09:55.885Z,15.70
2022-08-24T05:12:24.267Z,15.80
2022-08-24T05:14:52.610Z,15.80
2022-08-24T05:17:20.894Z,15.90
2022-08-24T05:19:50.671Z,16.00
2022-08-24T05:22:19.247Z,16.10
2022-08-24T05:24:47.541Z,16.10
2022-08-24T05:27:15.941Z,16.20
2022-08-24T05:29:47.388Z,16.30
2022-08-24T05:32:17.576Z,16.40
2022-08-24T05:34:45.793Z,16.50
2022-08-24T05:37:15.837Z,16.50
2022-08-24T05:39:44.097Z,16.60
2022-08-24T05:42:13.089Z,16.70
2022-08-24T05:44:41.346Z,16.70
2022-08-24T05:47:10.314Z,16.80
2022-08-24T05:49:41.483Z,16.90
2022-08-24T05:52:10.312Z,17.00
2022-08-24T05:54:40.803Z,17.10
2022-08-24T05:57:11.435Z,17.20
2022-08-24T05:59:40.551Z,17.20
2022-08-24T06:02:09.375Z,17.40
2022-08-24T06:04:38.288Z,17.50
2022-08-24T06:07:09.398Z,17.60
2022-08-24T06:09:39.341Z,17.70
2022-08-24T06:12:08.753Z,17.70
2022-08-24T06:14:37.577Z,17.90
2022-08-24T06:17:07.474Z,18.00
2022-08-24T06:19:36.355Z,18.20
2022-08-24T06:22:05.147Z,18.30
2022-08-24T06:24:50.769Z,18.40
2022-08-24T06:27:23.005Z,18.50
2022-08-24T06:29:52.764Z,18.70
2022-08-24T06:32:21.021Z,18.90
2022-08-24T06:34:49.442Z,19.00
2022-08-24T06:37:18.427Z,19.20
2022-08-24T06:39:46.856Z,19.40
2022-08-24T06:42:14.808Z,19.50
2022-08-24T06:44:44.740Z,19.60
2022-08-24T06:47:12.811Z,19.80
2022-08-24T06:49:41.197Z,19.80
2022-08-24T06:52:10.132Z,20.00
2022-08-24T06:54:38.494Z,20.10
2022-08-24T06:57:07.073Z,20.20
2022-08-24T06:59:35.383Z,20.20
2022-08-24T07:02:05.125Z,20.30
2022-08-24T07:04:34.739Z,20.30
2022-08-24T07:07:02.889Z,20.30
2022-08-24T07:09:32.907Z,20.40
2022-08-24T07:12:01.788Z,20.60
2022-08-24T07:14:30.052Z,20.70
2022-08-24T07:16:58.325Z,20.80
2022-08-24T07:19:27.973Z,21.00
2022-08-24T07:21:59.102Z,21.10
2022-08-24T07:24:27.442Z,21.10
2022-08-24T07:26:55.483Z,21.30
2022-08-24T07:29:46.232Z,21.50
2022-08-24T07:32:11.414Z,21.60
2022-08-24T07:34:40.994Z,21.70
2022-08-24T07:37:09.083Z,21.70
2022-08-24T07:39:37.071Z,21.80
2022-08-24T07:42:13.859Z,21.90
2022-08-24T07:44:43.320Z,22.00
2022-08-24T07:47:36.533Z,22.20
2022-08-24T07:50:01.288Z,22.30
2022-08-24T07:52:29.297Z,22.40
2022-08-24T07:54:57.383Z,22.50
2022-08-24T07:57:25.933Z,22.60
2022-08-24T07:59:56.309Z,22.70
2022-08-24T08:02:25.028Z,22.90
2022-08-24T08:05:00.475Z,23.00
2022-08-24T08:07:31.035Z,23.10
2022-08-24T08:09:59.223Z,23.30
2022-08-24T08:12:27.467Z,23.40
2022-08-24T08:14:55.684Z,23.50
2022-08-24T08:17:23.799Z,23.70
2022-08-24T08:19:52.108Z,23.80
2022-08-24T08:22:38.618Z,23.90
2022-08-24T08:25:08.209Z,24.10
2022-08-24T08:27:36.873Z,24.10
2022-08-24T08:30:06.457Z,24.20
2022-08-24T08:32:34.798Z,24.40
2022-08-24T08:35:03.175Z,24.50
2022-08-24T08:37:33.150Z,24.60
2022-08-24T08:40:01.469Z,24.80
2022-08-24T08:42:40.959Z,24.90
2022-08-24T08:45:28.000Z,25.10
2022-08-24T08:48:26.415Z,25.30
2022-08-24T08:51:24.624Z,25.40
2022-08-24T08:54:15.547Z,25.60
2022-08-24T08:56:59.549Z,25.80
2022-08-24T08:59:41.654Z,26.00
2022-08-24T09:02:23.901Z,26.10
2022-08-24T09:05:16.722Z,26.20
2022-08-24T09:07:56.910Z,26.40
2022-08-24T09:10:52.667Z,26.60
2022-08-24T09:13:42.575Z,26.60
2022-08-24T09:16:27.579Z,26.70
2022-08-24T09:19:09.284Z,26.70
2022-08-24T09:21:54.352Z,26.80
2022-08-24T09:24:42.200Z,26.90
2022-08-24T09:27:23.430Z,27.00
2022-08-24T09:30:08.763Z,27.10
2022-08-24T09:32:46.637Z,27.20
2022-08-24T09:35:26.952Z,27.30
2022-08-24T09:38:02.237Z,27.40
2022-08-24T09:40:38.806Z,27.50
2022-08-24T09:43:42.423Z,27.60
2022-08-24T09:46:49.851Z,27.60
2022-08-24T09:49:49.343Z,27.60
2022-08-24T09:52:46.062Z,27.50
2022-08-24T09:55:46.451Z,27.60
2022-08-24T09:58:21.868Z,27.70
2022-08-24T10:01:00.837Z,27.70
2022-08-24T10:03:49.205Z,27.70
2022-08-24T10:06:29.675Z,27.70
2022-08-24T10:09:15.224Z,27.70
2022-08-24T10:11:56.241Z,28.00
2022-08-24T10:14:40.683Z,28.30
2022-08-24T10:17:19.066Z,28.50
2022-08-24T10:20:01.371Z,28.60
2022-08-24T10:22:59.023Z,28.60
2022-08-24T10:25:38.379Z,28.60
2022-08-24T10:28:34.020Z,28.60
2022-08-24T10:31:08.738Z,28.70
2022-08-24T10:33:55.284Z,28.90
2022-08-24T10:37:06.637Z,28.90
2022-08-24T10:40:06.222Z,28.70
2022-08-24T10:43:42.790Z,28.70
2022-08-24T10:46:37.887Z,28.90
2022-08-24T10:49:52.274Z,28.80
2022-08-24T10:52:58.762Z,28.70
2022-08-24T10:55:30.262Z,28.80
2022-08-24T10:58:22.621Z,28.90
2022-08-24T11:00:51.486Z,29.10
2022-08-24T11:03:28.332Z,29.40
2022-08-24T11:05:59.328Z,29.60
2022-08-24T11:08:29.546Z,29.80
2022-08-24T11:11:10.368Z,29.90
2022-08-24T11:13:50.929Z,29.90
2022-08-24T11:16:26.206Z,30.10
2022-08-24T11:18:56.284Z,30.10
2022-08-24T11:21:41.792Z,30.00
2022-08-24T11:24:13.928Z,30.10
2022-08-24T11:26:55.645Z,30.20
2022-08-24T11:29:28.016Z,30.30
2022-08-24T11:31:56.372Z,30.20
2022-08-24T11:34:35.106Z,30.10
2022-08-24T11:37:06.148Z,30.00
2022-08-24T11:39:36.722Z,30.10
2022-08-24T11:42:16.997Z,30.20
2022-08-24T11:44:50.829Z,30.60
2022-08-24T11:47:34.914Z,30.60
2022-08-24T11:50:14.491Z,30.60
2022-08-24T11:52:53.320Z,30.50
2022-08-24T11:55:27.055Z,30.50
2022-08-24T11:58:04.926Z,30.70
2022-08-24T12:00:46.949Z,30.80
2022-08-24T12:03:31.437Z,31.00
2022-08-24T12:06:04.221Z,31.00
2022-08-24T12:08:37.926Z,31.20
2022-08-24T12:11:13.345Z,31.10
2022-08-24T12:13:52.737Z,31.30
2022-08-24T12:16:30.389Z,31.40
2022-08-24T12:19:04.892Z,31.30
2022-08-24T12:21:35.229Z,31.40
2022-08-24T12:24:08.989Z,31.60
2022-08-24T12:26:40.174Z,31.70
2022-08-24T12:29:13.941Z,31.70
2022-08-24T12:31:47.290Z,31.60
2022-08-24T12:34:22.354Z,31.40
2022-08-24T12:37:00.773Z,31.70
2022-08-24T12:39:36.983Z,31.70
2022-08-24T12:42:15.833Z,31.90
2022-08-24T12:44:51.774Z,32.10
2022-08-24T12:47:27.219Z,31.70
2022-08-24T12:50:02.764Z,31.70
2022-08-24T12:52:54.635Z,32.20
2022-08-24T12:55:58.834Z,32.70
2022-08-24T12:58:53.896Z,32.80
2022-08-24T13:01:27.970Z,32.90
2022-08-24T13:04:17.127Z,32.70
2022-08-24T13:06:50.383Z,32.40
2022-08-24T13:09:33.239Z,32.30
2022-08-24T13:12:41.702Z,32.40
2022-08-24T13:15:28.176Z,32.80
2022-08-24T13:18:02.577Z,33.10
2022-08-24T13:20:56.562Z,32.90
2022-08-24T13:23:27.296Z,32.80
2022-08-24T13:25:59.699Z,33.00
2022-08-24T13:28:44.563Z,33.10
2022-08-24T13:31:42.252Z,33.00
2022-08-24T13:34:40.000Z,32.80
2022-08-24T13:37:16.636Z,32.60
2022-08-24T13:40:08.359Z,32.70
2022-08-24T13:42:56.653Z,33.00
2022-08-24T13:45:36.430Z,33.00
2022-08-24T13:48:20.501Z,33.10
2022-08-24T13:51:06.668Z,33.00
2022-08-24T13:53:56.020Z,33.00
2022-08-24T13:56:38.882Z,32.90
2022-08-24T13:59:18.277Z,32.80
2022-08-24T14:02:04.552Z,32.50
2022-08-24T14:04:53.162Z,32.80
2022-08-24T14:07:25.174Z,32.80
2022-08-24T14:10:13.903Z,33.00
2022-08-24T14:12:51.164Z,33.10
2022-08-24T14:15:27.211Z,33.20
2022-08-24T14:21:05.755Z,32.50
2022-08-24T14:23:50.152Z,32.50
2022-08-24T14:27:10.008Z,32.50
2022-08-24T14:29:45.151Z,32.50
2022-08-24T14:32:45.220Z,32.60
2022-08-24T14:35:36.107Z,32.70
2022-08-24T14:38:26.343Z,32.70
2022-08-24T14:41:17.055Z,32.60
2022-08-24T14:44:07.279Z,32.50
2022-08-24T14:46:44.757Z,32.70
2022-08-24T14:49:23.177Z,32.80
2022-08-24T14:52:11.228Z,32.90
2022-08-24T14:54:53.385Z,33.00
2022-08-24T14:57:44.877Z,33.00
2022-08-24T15:00:17.822Z,33.00
2022-08-24T15:03:20.658Z,32.90
2022-08-24T15:06:25.739Z,32.90
2022-08-24T15:08:59.267Z,32.70
2022-08-24T15:11:29.093Z,32.60
2022-08-24T15:14:02.594Z,32.50
2022-08-24T15:16:43.700Z,32.20
2022-08-24T15:19:30.034Z,32.10
2022-08-24T15:22:02.636Z,32.20
2022-08-24T15:24:39.270Z,32.20
2022-08-24T15:27:16.243Z,32.30
2022-08-24T15:29:53.367Z,32.40
2022-08-24T15:32:22.647Z,32.20
2022-08-24T15:34:58.381Z,32.00
2022-08-24T15:37:31.149Z,31.90
2022-08-24T15:40:01.735Z,31.90
2022-08-24T15:42:32.739Z,32.10
2022-08-24T15:45:03.735Z,32.00
2022-08-24T15:47:35.032Z,31.80
2022-08-24T15:50:06.476Z,31.70
2022-08-24T15:52:50.310Z,31.70
2022-08-24T15:55:39.304Z,31.70
2022-08-24T15:58:27.632Z,31.80
2022-08-24T16:01:19.864Z,31.70
2022-08-24T16:03:51.914Z,31.80
2022-08-24T16:06:27.414Z,31.80
2022-08-24T16:09:03.258Z,31.50
2022-08-24T16:14:29.563Z,31.40
2022-08-24T16:17:02.249Z,31.30
2022-08-24T16:19:35.102Z,31.40
2022-08-24T16:22:08.148Z,31.60
2022-08-24T16:24:43.904Z,31.80
2022-08-24T16:27:17.383Z,32.00
2022-08-24T16:29:56.807Z,32.00
2022-08-24T16:32:33.672Z,31.80
2022-08-24T16:35:21.301Z,31.50
2022-08-24T16:37:50.462Z,31.30
2022-08-24T16:40:19.481Z,31.00
2022-08-24T16:42:50.017Z,30.50
2022-08-24T16:45:20.854Z,30.20
2022-08-24T16:47:50.604Z,30.00
2022-08-24T16:50:27.268Z,29.70
2022-08-24T16:52:55.967Z,29.50
2022-08-24T16:55:24.448Z,29.20
2022-08-24T16:57:54.300Z,29.00
2022-08-24T17:00:35.744Z,28.90
2022-08-24T17:03:04.190Z,28.70
2022-08-24T17:05:33.481Z,28.50
2022-08-24T17:08:02.158Z,28.40
2022-08-24T17:10:33.896Z,28.20
2022-08-24T17:13:06.278Z,28.10
2022-08-24T17:15:34.898Z,28.10
2022-08-24T17:18:06.066Z,28.00
2022-08-24T17:20:34.839Z,27.90
2022-08-24T17:23:03.355Z,27.80
2022-08-24T17:25:32.191Z,27.70
2022-08-24T17:28:03.025Z,27.60
2022-08-24T17:30:32.933Z,27.50
2022-08-24T17:33:01.684Z,27.40
2022-08-24T17:35:30.041Z,27.30
2022-08-24T17:38:00.411Z,27.20
2022-08-24T17:40:32.018Z,27.20
2022-08-24T17:43:00.783Z,27.20
2022-08-24T17:45:29.065Z,27.10
2022-08-24T17:47:59.363Z,27.10
2022-08-24T17:50:28.625Z,27.00
2022-08-24T17:53:00.340Z,27.00
2022-08-24T17:55:29.714Z,26.80
2022-08-24T17:57:58.504Z,26.80
2022-08-24T18:00:27.603Z,26.70
2022-08-24T18:02:56.659Z,26.70
2022-08-24T18:05:26.695Z,26.50
2022-08-24T18:07:57.044Z,26.50
2022-08-24T18:10:29.800Z,26.40
2022-08-24T18:12:59.140Z,26.40
2022-08-24T18:15:35.449Z,26.30
2022-08-24T18:18:09.297Z,26.20
2022-08-24T18:20:45.222Z,26.10
2022-08-24T18:23:21.298Z,25.90
2022-08-24T18:25:54.526Z,25.90
2022-08-24T18:28:26.238Z,25.70
2022-08-24T18:30:57.126Z,25.60
2022-08-24T18:33:27.514Z,25.60
2022-08-24T18:35:59.847Z,25.50
2022-08-24T18:38:30.517Z,25.40
2022-08-24T18:41:02.348Z,25.30
2022-08-24T18:43:35.155Z,25.20
2022-08-24T18:46:12.207Z,25.10
2022-08-24T18:48:40.856Z,25.10
2022-08-24T18:51:11.731Z,25.00
2022-08-24T18:53:39.949Z,25.00
2022-08-24T18:56:12.420Z,24.90
2022-08-24T18:58:41.033Z,24.80
2022-08-24T19:01:10.033Z,24.70
2022-08-24T19:03:38.538Z,24.60
2022-08-24T19:06:07.295Z,24.60
2022-08-24T19:08:37.622Z,24.50
2022-08-24T19:11:06.959Z,24.40
2022-08-24T19:13:37.615Z,24.40
2022-08-24T19:16:06.660Z,24.40
2022-08-24T19:18:35.508Z,24.30
2022-08-24T19:21:03.796Z,24.30
2022-08-24T19:23:35.616Z,24.30
2022-08-24T19:26:05.468Z,24.20
2022-08-24T19:28:33.849Z,24.20
2022-08-24T19:31:04.112Z,24.10
2022-08-24T19:33:36.911Z,24.10
2022-08-24T19:36:05.647Z,24.00
2022-08-24T19:38:33.857Z,23.90
2022-08-24T19:41:02.601Z,23.90
2022-08-24T19:44:00.937Z,23.80
2022-08-24T19:46:28.292Z,23.70
2022-08-24T19:48:56.504Z,23.60
2022-08-24T19:51:24.615Z,23.60
2022-08-24T19:53:52.869Z,23.50
2022-08-24T19:56:21.046Z,23.50
2022-08-24T19:58:54.857Z,23.40
2022-08-24T20:01:24.825Z,23.30
2022-08-24T20:03:54.154Z,23.30
2022-08-24T20:06:23.858Z,23.20
2022-08-24T20:08:52.731Z,23.20
2022-08-24T20:11:25.026Z,23.10
2022-08-24T20:13:55.656Z,23.10
2022-08-24T20:16:25.999Z,23.00
2022-08-24T20:18:55.395Z,23.00
2022-08-24T20:21:28.225Z,22.90
2022-08-24T20:23:59.664Z,22.90
2022-08-24T20:26:29.601Z,22.80
2022-08-24T20:28:59.726Z,22.80
2022-08-24T20:31:28.933Z,22.80
2022-08-24T20:33:58.077Z,22.70
2022-08-24T20:36:28.378Z,22.70
2022-08-24T20:38:59.143Z,22.60
2022-08-24T20:41:28.430Z,22.60
2022-08-24T20:43:58.087Z,22.60
2022-08-24T20:46:27.064Z,22.50
2022-08-24T20:48:56.107Z,22.50
2022-08-24T20:51:24.386Z,22.50
2022-08-24T20:53:52.509Z,22.50
2022-08-24T20:56:31.384Z,22.50
2022-08-24T20:59:02.171Z,22.50
2022-08-24T21:01:30.642Z,22.40
2022-08-24T21:04:04.260Z,22.40
2022-08-24T21:06:34.198Z,22.40
2022-08-24T21:09:03.110Z,22.40
2022-08-24T21:11:32.182Z,22.30
2022-08-24T21:14:01.666Z,22.30
2022-08-24T21:16:29.745Z,22.30
2022-08-24T21:18:57.820Z,22.20
2022-08-24T21:21:26.403Z,22.10
2022-08-24T21:23:54.469Z,22.10
2022-08-24T21:26:26.336Z,22.00
2022-08-24T21:28:56.223Z,22.00
2022-08-24T21:31:25.801Z,21.90
2022-08-24T21:34:11.201Z,21.90
2022-08-24T21:36:39.934Z,21.80
2022-08-24T21:39:10.958Z,21.80
2022-08-24T21:41:39.949Z,21.80
2022-08-24T21:44:08.087Z,21.70
2022-08-24T21:46:39.527Z,21.70
2022-08-24T21:49:11.857Z,21.60
2022-08-24T21:51:40.501Z,21.60
2022-08-24T21:54:09.524Z,21.60
2022-08-24T21:56:37.568Z,21.60
2022-08-24T21:59:05.656Z,21.50
2022-08-24T22:01:34.017Z,21.60
2022-08-24T22:04:03.743Z,21.70
2022-08-24T22:06:32.755Z,21.70
2022-08-24T22:09:01.832Z,21.70
2022-08-24T22:11:30.336Z,21.60
2022-08-24T22:13:58.483Z,21.50
2022-08-24T22:16:27.016Z,21.50
2022-08-24T22:18:55.522Z,21.50
2022-08-24T22:21:29.323Z,21.40
2022-08-24T22:23:58.477Z,21.30
2022-08-24T22:26:27.697Z,21.40
2022-08-24T22:28:56.722Z,21.30
2022-08-24T22:31:26.523Z,21.30
2022-08-24T22:33:55.992Z,21.30
2022-08-24T22:36:27.700Z,21.20
2022-08-24T22:38:56.408Z,21.20
2022-08-24T22:41:24.780Z,21.10
2022-08-24T22:44:11.900Z,21.00
2022-08-24T22:46:40.321Z,21.00
2022-08-24T22:49:10.123Z,20.90
2022-08-24T22:51:40.106Z,20.90
2022-08-24T22:54:09.486Z,20.90
2022-08-24T22:56:41.542Z,21.00
2022-08-24T22:59:14.998Z,20.90
2022-08-24T23:01:45.794Z,20.90
2022-08-24T23:04:17.345Z,20.80
2022-08-24T23:06:46.819Z,20.80
2022-08-24T23:09:14.947Z,20.80
2022-08-24T23:11:44.060Z,20.90
2022-08-24T23:14:13.324Z,21.00
2022-08-24T23:16:47.869Z,21.10
2022-08-24T23:19:34.992Z,21.00
2022-08-24T23:22:05.828Z,21.10
2022-08-24T23:24:34.520Z,21.10
2022-08-24T23:27:03.200Z,21.10
2022-08-24T23:29:31.565Z,21.10
2022-08-24T23:31:59.821Z,21.10
2022-08-24T23:34:28.029Z,21.10
2022-08-24T23:36:56.804Z,21.10
2022-08-24T23:39:26.536Z,21.00
2022-08-24T23:41:54.970Z,21.00
2022-08-24T23:44:25.791Z,21.00
2022-08-24T23:46:54.839Z,21.00
2022-08-24T23:49:24.339Z,21.10
2022-08-24T23:51:52.654Z,21.20
2022-08-24T23:54:21.944Z,21.20
2022-08-24T23:56:53.321Z,21.10
2022-08-24T23:59:23.405Z,21.10
